createdAt,value
2022-09-04T00:02:33.580Z,-1801.28
2022-09-04T00:07:49.224Z,-2838.28
2022-09-04T00:13:01.785Z,-4134.16
2022-09-04T00:18:10.941Z,-5170.53
2022-09-04T00:23:21.410Z,-5429.56
2022-09-04T00:28:35.295Z,-7242.44
2022-09-04T00:33:44.195Z,-9313.25
2022-09-04T00:38:55.148Z,-9830.78
2022-09-04T00:44:44.876Z,-11124.28
2022-09-04T00:50:14.849Z,-12675.91
2022-09-04T00:55:32.232Z,-12934.47
2022-09-04T01:00:37.234Z,-13192.97
2022-09-04T01:05:58.535Z,-14226.91
2022-09-04T01:11:16.728Z,-14485.34
2022-09-04T01:16:26.290Z,-15002.19
2022-09-04T01:22:05.181Z,-15262.09
2022-09-04T01:27:20.129Z,-15262.09
2022-09-04T01:32:33.931Z,-15262.09
2022-09-04T01:37:49.179Z,-15262.09
2022-09-04T01:42:58.139Z,-15262.09
2022-09-04T01:48:08.009Z,-15262.09
2022-09-04T01:53:15.967Z,-15262.09
2022-09-04T01:58:36.120Z,-15262.09
2022-09-04T02:03:49.315Z,-15262.09
2022-09-04T02:09:10.918Z,-15262.09
2022-09-04T02:14:34.177Z,-15262.09
2022-09-04T02:19:49.219Z,-15262.09
2022-09-04T02:25:01.945Z,-15262.09
2022-09-04T02:30:10.268Z,-15262.09
2022-09-04T02:35:22.397Z,-15262.09
2022-09-04T02:40:33.335Z,-15262.09
2022-09-04T02:45:46.921Z,-15262.09
2022-09-04T02:51:06.515Z,-15262.09
2022-09-04T02:56:26.355Z,-15262.09
2022-09-04T03:01:38.503Z,-15262.09
2022-09-04T03:06:50.525Z,-15262.09
2022-09-04T03:12:01.412Z,-15262.09
2022-09-04T03:17:13.039Z,-15262.09
2022-09-04T03:22:23.126Z,-15262.09
2022-09-04T03:27:28.638Z,-15262.09
2022-09-04T03:32:39.780Z,-15262.09
2022-09-04T03:37:53.736Z,-15262.09
2022-09-04T03:43:11.788Z,-15262.09
2022-09-04T03:48:28.670Z,-15262.09
2022-09-04T03:53:39.399Z,-15262.09
2022-09-04T03:58:51.432Z,-15262.09
2022-09-04T04:04:34.249Z,-15262.09
2022-09-04T04:09:49.975Z,-15262.09
2022-09-04T04:15:16.430Z,-15262.09
2022-09-04T04:20:38.205Z,-15262.09
2022-09-04T04:26:02.601Z,-15262.09
2022-09-04T04:31:16.497Z,-15262.09
2022-09-04T04:36:30.563Z,-15262.09
2022-09-04T04:42:00.135Z,-15262.09
2022-09-04T04:47:15.694Z,-15262.09
2022-09-04T04:52:30.245Z,-15262.09
2022-09-04T04:57:45.563Z,-15262.09
2022-09-04T05:03:01.773Z,-15262.09
2022-09-04T05:08:17.319Z,-15262.09
2022-09-04T05:13:27.897Z,-15262.09
2022-09-04T05:18:36.620Z,-15262.09
2022-09-04T05:23:49.937Z,-15262.09
2022-09-04T05:29:03.111Z,-15262.09
2022-09-04T05:34:13.771Z,-15262.09
2022-09-04T05:39:27.437Z,-15262.09
2022-09-04T05:44:46.361Z,-15262.09
2022-09-04T05:50:08.389Z,-15262.09
2022-09-04T05:55:46.268Z,-15262.09
2022-09-04T06:01:01.027Z,-15262.09
2022-09-04T06:06:15.628Z,-15262.09
2022-09-04T06:11:40.977Z,-15262.09
2022-09-04T06:16:58.205Z,-15262.09
2022-09-04T06:22:42.221Z,-15262.09
2022-09-04T06:28:04.669Z,-15262.09
2022-09-04T06:33:38.300Z,-15262.09
2022-09-04T06:38:58.486Z,-15262.09
2022-09-04T06:44:13.628Z,-15262.09
2022-09-04T06:49:25.306Z,-15262.09
2022-09-04T06:54:47.273Z,-15262.09
2022-09-04T07:00:04.277Z,-15262.09
2022-09-04T07:05:19.085Z,-15262.09
2022-09-04T07:10:27.489Z,-15262.09
2022-09-04T07:16:04.861Z,-15262.09
2022-09-04T07:21:15.949Z,-15262.09
2022-09-04T07:26:28.520Z,-15262.09
2022-09-04T07:31:40.919Z,-15262.09
2022-09-04T07:36:54.253Z,-15262.09
2022-09-04T07:42:06.025Z,-15262.09
2022-09-04T07:47:18.258Z,-15262.09
2022-09-04T07:52:36.649Z,-15262.09
2022-09-04T07:58:07.966Z,-15262.09
2022-09-04T08:03:34.410Z,-15262.09
2022-09-04T08:09:01.898Z,-11382.94
2022-09-04T08:14:46.000Z,6245.03
2022-09-04T08:19:58.676Z,25259.00
2022-09-04T08:25:17.014Z,43357.69
2022-09-04T08:30:21.763Z,47938.50
2022-09-04T08:35:33.306Z,49077.34
2022-09-04T08:41:14.844Z,48291.41
2022-09-04T08:46:49.605Z,45495.69
2022-09-04T08:52:19.563Z,34835.69
2022-09-04T08:57:43.452Z,30157.78
2022-09-04T09:03:22.948Z,19258.25
2022-09-04T09:08:51.056Z,13787.38
2022-09-04T09:14:28.792Z,10404.50
2022-09-04T09:19:47.570Z,3647.59
2022-09-04T09:25:21.068Z,14.16
2022-09-04T09:30:25.708Z,-1023.34
2022-09-04T09:36:06.603Z,-504.63
2022-09-04T09:41:33.731Z,-2319.81
2022-09-04T09:47:14.004Z,-4393.25
2022-09-04T09:52:40.918Z,-5947.63
2022-09-04T09:58:10.426Z,-4911.44
2022-09-04T10:03:48.375Z,-4911.44
2022-09-04T10:09:41.455Z,-4134.16
2022-09-04T10:15:20.515Z,-3356.69
2022-09-04T10:20:43.349Z,-3097.47
2022-09-04T10:26:04.814Z,14.16
2022-09-04T10:31:47.214Z,3647.59
2022-09-04T10:37:05.190Z,6504.84
2022-09-04T10:42:24.041Z,15349.69
2022-09-04T10:47:48.787Z,38555.00
2022-09-04T10:53:09.917Z,45959.13
2022-09-04T10:58:30.072Z,48974.72
2022-09-04T11:03:55.448Z,50105.66
2022-09-04T11:09:26.762Z,51353.97
2022-09-04T11:15:22.645Z,51625.03
2022-09-04T11:20:59.553Z,51834.50
2022-09-04T11:26:50.320Z,51758.53
2022-09-04T11:32:19.050Z,51477.19
2022-09-04T11:37:58.010Z,51189.69
2022-09-04T11:43:20.463Z,51384.78
2022-09-04T11:49:09.906Z,51160.97
2022-09-04T11:54:56.690Z,51191.75
2022-09-04T12:00:08.393Z,51382.72
2022-09-04T12:05:39.748Z,51577.81
2022-09-04T12:10:56.550Z,51464.88
2022-09-04T12:16:33.100Z,51425.84
2022-09-04T12:22:05.027Z,51495.66
2022-09-04T12:27:44.266Z,51407.38
2022-09-04T12:33:19.365Z,51405.31
2022-09-04T12:38:47.733Z,51678.44
2022-09-04T12:44:05.403Z,51834.50
2022-09-04T12:49:30.793Z,51994.72
2022-09-04T12:54:43.528Z,52076.84
2022-09-04T13:00:01.389Z,52056.31
2022-09-04T13:05:39.411Z,52093.28
2022-09-04T13:11:01.790Z,52060.44
2022-09-04T13:16:10.711Z,52193.94
2022-09-04T13:21:26.706Z,52150.78
2022-09-04T13:26:46.189Z,52060.44
2022-09-04T13:32:04.693Z,52183.66
2022-09-04T13:37:16.887Z,52253.50
2022-09-04T13:43:00.328Z,52269.94
2022-09-04T13:48:08.674Z,52389.06
2022-09-04T13:53:20.210Z,52417.81
2022-09-04T13:58:31.461Z,52481.50
2022-09-04T14:03:41.941Z,52479.44
2022-09-04T14:09:04.449Z,52497.91
2022-09-04T14:14:37.721Z,52518.47
2022-09-04T14:19:52.307Z,52563.66
2022-09-04T14:25:06.639Z,52567.75
2022-09-04T14:30:18.095Z,52557.50
2022-09-04T14:35:30.852Z,52575.97
2022-09-04T14:40:40.086Z,52639.66
2022-09-04T14:46:05.081Z,52596.50
2022-09-04T14:51:31.421Z,52592.41
2022-09-04T14:56:45.251Z,52610.91
2022-09-04T15:02:08.000Z,52582.13
2022-09-04T15:07:29.304Z,52610.91
2022-09-04T15:12:38.606Z,52623.22
2022-09-04T15:17:51.797Z,52629.38
2022-09-04T15:22:59.551Z,52639.66
2022-09-04T15:28:09.489Z,52623.22
2022-09-04T15:33:15.399Z,52612.94
2022-09-04T15:38:21.774Z,52598.56
2022-09-04T15:43:34.899Z,52654.03
2022-09-04T15:48:53.254Z,52608.84
2022-09-04T15:54:30.195Z,52608.84
2022-09-04T15:59:49.155Z,52617.06
2022-09-04T16:05:03.223Z,52610.91
2022-09-04T16:10:14.759Z,52629.38
2022-09-04T16:15:27.186Z,52606.78
2022-09-04T16:20:38.896Z,52625.28
2022-09-04T16:25:45.523Z,52643.75
2022-09-04T16:30:58.856Z,52621.16
2022-09-04T16:36:06.793Z,52633.50
2022-09-04T16:41:14.694Z,52596.50
2022-09-04T16:46:29.671Z,52641.72
2022-09-04T16:51:39.969Z,52590.34
2022-09-04T16:56:50.839Z,52557.50
2022-09-04T17:02:02.095Z,52571.88
2022-09-04T17:07:16.661Z,52534.88
2022-09-04T17:12:32.948Z,52543.09
2022-09-04T17:17:42.594Z,52545.16
2022-09-04T17:29:01.921Z,52526.69
2022-09-04T17:29:13.985Z,52520.50
2022-09-04T17:40:33.636Z,52444.50
2022-09-04T17:40:46.390Z,52421.91
2022-09-04T17:45:22.341Z,52399.31
2022-09-04T17:50:28.583Z,52374.69
2022-09-04T17:55:39.180Z,52384.94
2022-09-04T18:01:15.500Z,52368.50
2022-09-04T18:06:23.932Z,52339.75
2022-09-04T18:11:35.192Z,52347.97
2022-09-04T18:17:12.068Z,52397.28
2022-09-04T18:22:33.343Z,52423.97
2022-09-04T18:27:44.855Z,52372.63
2022-09-04T18:37:16.432Z,52426.03
2022-09-04T18:38:21.187Z,52366.47
2022-09-04T18:50:21.796Z,52343.88
2022-09-04T18:50:37.749Z,52356.19
2022-09-04T18:54:36.376Z,52360.31
2022-09-04T18:59:45.720Z,52354.13
2022-09-04T19:05:01.166Z,52298.69
2022-09-04T19:10:17.799Z,52282.25
2022-09-04T19:15:37.135Z,52290.47
2022-09-04T19:20:47.636Z,52274.03
2022-09-04T19:25:55.746Z,52243.22
2022-09-04T19:31:04.939Z,52222.69
2022-09-04T19:36:12.933Z,52037.84
2022-09-04T19:45:57.466Z,51980.34
2022-09-04T19:46:59.524Z,51904.34
2022-09-04T19:53:32.906Z,51674.31
2022-09-04T19:57:43.734Z,51664.06
2022-09-04T20:02:51.164Z,51676.38
2022-09-04T20:07:59.235Z,51719.50
2022-09-04T20:13:16.809Z,51653.78
2022-09-04T20:18:24.391Z,51267.72
2022-09-04T20:23:35.649Z,51202.03
2022-09-04T20:28:52.987Z,51255.41
2022-09-04T20:34:01.688Z,50943.31
2022-09-04T20:39:14.372Z,50329.44
2022-09-04T20:44:27.957Z,49896.28
2022-09-04T20:52:57.188Z,49510.41
2022-09-04T20:55:24.350Z,49750.56
2022-09-04T21:03:10.760Z,49387.25
2022-09-04T21:06:08.638Z,46943.56
2022-09-04T21:11:41.059Z,46035.00
2022-09-04T21:17:17.040Z,45009.78
2022-09-04T21:22:43.639Z,44236.94
2022-09-04T21:28:04.298Z,43841.34
2022-09-04T21:33:26.983Z,42529.84
2022-09-04T21:38:56.802Z,40755.94
2022-09-04T21:44:22.136Z,39318.53
2022-09-04T21:49:46.867Z,35549.41
2022-09-04T21:56:33.308Z,34398.09
2022-09-04T22:02:46.275Z,31563.22
2022-09-04T22:05:54.379Z,29393.97
2022-09-04T22:13:41.294Z,26370.91
2022-09-04T22:17:04.205Z,25259.00
2022-09-04T22:22:28.966Z,21344.44
2022-09-04T22:28:07.373Z,20301.22
2022-09-04T22:33:48.423Z,21866.16
2022-09-04T22:39:35.204Z,18476.22
2022-09-04T22:45:09.727Z,17173.22
2022-09-04T22:50:49.234Z,15089.28
2022-09-04T22:56:22.746Z,15089.28
2022-09-04T23:01:40.809Z,12225.69
2022-09-04T23:11:35.914Z,12225.69
2022-09-04T23:13:57.622Z,12746.19
2022-09-04T23:19:01.796Z,9624.25
2022-09-04T23:26:42.221Z,8064.25
2022-09-04T23:30:08.165Z,6504.84
2022-09-04T23:35:16.999Z,3387.97
2022-09-04T23:40:30.927Z,2349.56
2022-09-04T23:46:14.085Z,533.03
2022-09-04T23:51:27.751Z,14.16
2022-09-04T23:56:36.591Z,-504.63
